createdAt,value
2023-02-09T00:06:23.733Z,70.60
2023-02-09T00:08:51.220Z,73.00
2023-02-09T00:11:43.896Z,75.80
2023-02-09T00:14:12.058Z,65.93
2023-02-09T00:16:39.951Z,68.20
2023-02-09T00:19:07.208Z,80.85
2023-02-09T00:21:34.201Z,67.57
2023-02-09T00:24:01.289Z,68.60
2023-02-09T00:26:28.258Z,69.23
2023-02-09T00:28:55.366Z,64.77
2023-02-09T00:31:22.546Z,62.63
2023-02-09T00:33:49.621Z,61.90
2023-02-09T00:36:17.697Z,58.30
2023-02-09T00:38:44.895Z,63.30
2023-02-09T00:41:13.529Z,55.40
2023-02-09T00:43:40.980Z,57.40
2023-02-09T00:46:08.375Z,50.03
2023-02-09T00:48:36.685Z,57.65
2023-02-09T00:51:03.701Z,53.90
2023-02-09T00:53:30.790Z,48.20
2023-02-09T00:56:01.016Z,52.73
2023-02-09T00:58:28.218Z,54.07
2023-02-09T01:00:55.154Z,49.43
2023-02-09T01:03:24.825Z,48.70
2023-02-09T01:05:53.419Z,53.07
2023-02-09T01:08:20.339Z,48.87
2023-02-09T01:10:47.612Z,52.27
2023-02-09T01:13:15.511Z,50.90
2023-02-09T01:15:42.538Z,48.20
2023-02-09T01:18:09.379Z,47.20
2023-02-09T01:20:36.474Z,39.30
2023-02-09T01:23:03.485Z,33.60
2023-02-09T01:25:30.822Z,35.87
2023-02-09T01:27:58.100Z,40.00
2023-02-09T01:30:25.222Z,37.00
2023-02-09T01:32:52.421Z,40.60
2023-02-09T01:35:20.038Z,34.37
2023-02-09T01:37:47.295Z,31.37
2023-02-09T01:40:15.131Z,30.67
2023-02-09T01:42:42.073Z,32.13
2023-02-09T01:45:21.318Z,29.43
2023-02-09T01:48:00.442Z,31.30
2023-02-09T01:50:30.909Z,37.72
2023-02-09T01:52:58.093Z,31.57
2023-02-09T01:55:29.901Z,37.80
2023-02-09T01:58:05.827Z,39.07
2023-02-09T02:00:33.084Z,37.10
2023-02-09T02:03:04.450Z,33.20
2023-02-09T02:05:37.415Z,29.13
2023-02-09T02:08:26.908Z,26.43
2023-02-09T02:10:54.502Z,26.90
2023-02-09T02:13:22.223Z,24.60
2023-02-09T02:15:56.346Z,19.65
2023-02-09T02:18:57.186Z,23.13
2023-02-09T02:21:42.337Z,20.93
2023-02-09T02:24:28.505Z,20.30
2023-02-09T02:26:58.147Z,17.47
2023-02-09T02:29:52.859Z,19.87
2023-02-09T02:32:32.961Z,18.90
2023-02-09T02:35:28.017Z,19.67
2023-02-09T02:38:04.144Z,18.70
2023-02-09T02:40:31.172Z,19.57
2023-02-09T02:43:09.241Z,21.13
2023-02-09T02:45:56.450Z,18.85
2023-02-09T02:48:47.042Z,19.23
2023-02-09T02:51:38.293Z,18.67
2023-02-09T02:54:17.962Z,19.40
2023-02-09T02:56:51.368Z,18.13
2023-02-09T02:59:23.957Z,17.30
2023-02-09T03:02:00.135Z,22.77
2023-02-09T03:04:29.180Z,20.70
2023-02-09T03:06:56.102Z,19.50
2023-02-09T03:09:23.559Z,21.17
2023-02-09T03:11:56.188Z,21.17
2023-02-09T03:14:48.071Z,19.07
2023-02-09T03:17:33.674Z,21.60
2023-02-09T03:20:26.823Z,19.17
2023-02-09T03:23:02.445Z,20.20
2023-02-09T03:25:37.727Z,18.63
2023-02-09T03:28:07.387Z,19.43
2023-02-09T03:30:35.690Z,20.20
2023-02-09T03:33:05.152Z,22.95
2023-02-09T03:35:38.793Z,19.77
2023-02-09T03:38:08.530Z,21.63
2023-02-09T03:40:35.576Z,21.00
2023-02-09T03:43:02.559Z,21.50
2023-02-09T03:45:29.483Z,22.20
2023-02-09T03:47:56.569Z,22.80
2023-02-09T03:50:23.716Z,24.03
2023-02-09T03:52:50.991Z,23.13
2023-02-09T03:55:18.167Z,20.43
2023-02-09T03:57:45.469Z,23.90
2023-02-09T04:00:13.148Z,20.83
2023-02-09T04:02:42.768Z,22.07
2023-02-09T04:05:10.294Z,22.73
2023-02-09T04:07:40.044Z,24.20
2023-02-09T04:10:07.404Z,21.17
2023-02-09T04:12:34.336Z,21.43
2023-02-09T04:15:01.889Z,24.03
2023-02-09T04:17:31.645Z,22.67
2023-02-09T04:19:59.203Z,20.43
2023-02-09T04:22:26.176Z,24.43
2023-02-09T04:25:11.890Z,22.87
2023-02-09T04:27:39.720Z,23.00
2023-02-09T04:30:07.152Z,24.80
2023-02-09T04:32:34.169Z,24.40
2023-02-09T04:35:01.034Z,20.97
2023-02-09T04:37:30.006Z,19.55
2023-02-09T04:39:56.921Z,23.20
2023-02-09T04:42:24.853Z,21.37
2023-02-09T04:44:51.829Z,21.77
2023-02-09T04:47:37.225Z,19.03
2023-02-09T04:50:04.448Z,19.73
2023-02-09T04:52:31.424Z,16.23
2023-02-09T04:54:58.301Z,19.57
2023-02-09T04:57:43.761Z,19.57
2023-02-09T05:00:11.544Z,16.73
2023-02-09T05:02:38.477Z,20.73
2023-02-09T05:05:05.708Z,17.77
2023-02-09T05:07:32.609Z,17.53
2023-02-09T05:09:59.458Z,19.63
2023-02-09T05:12:26.618Z,20.73
2023-02-09T05:14:53.578Z,17.33
2023-02-09T05:17:21.292Z,18.23
2023-02-09T05:19:48.859Z,21.50
2023-02-09T05:22:16.101Z,19.80
2023-02-09T05:24:43.025Z,19.43
2023-02-09T05:27:10.143Z,22.73
2023-02-09T05:29:37.122Z,19.87
2023-02-09T05:32:04.413Z,19.40
2023-02-09T05:34:31.356Z,16.93
2023-02-09T05:36:58.579Z,22.10
2023-02-09T05:39:25.481Z,16.50
2023-02-09T05:42:11.269Z,19.73
2023-02-09T05:44:38.402Z,18.03
2023-02-09T05:47:05.361Z,21.97
2023-02-09T05:49:32.331Z,23.60
2023-02-09T05:51:59.258Z,23.23
2023-02-09T05:54:26.524Z,25.90
2023-02-09T05:56:53.432Z,25.90
2023-02-09T05:59:20.647Z,24.33
2023-02-09T06:01:47.613Z,19.87
2023-02-09T06:04:14.533Z,28.63
2023-02-09T06:06:41.565Z,24.27
2023-02-09T06:09:08.604Z,21.93
2023-02-09T06:11:35.793Z,19.60
2023-02-09T06:14:02.741Z,26.17
2023-02-09T06:16:30.060Z,26.53
2023-02-09T06:18:56.912Z,22.10
2023-02-09T06:21:23.759Z,22.67
2023-02-09T06:23:50.691Z,21.97
2023-02-09T06:26:18.351Z,22.60
2023-02-09T06:28:46.223Z,24.67
2023-02-09T06:31:13.678Z,21.07
2023-02-09T06:33:40.702Z,22.67
2023-02-09T06:36:08.783Z,20.37
2023-02-09T06:38:37.666Z,22.07
2023-02-09T06:43:32.643Z,20.70
2023-02-09T06:46:08.554Z,20.37
2023-02-09T06:48:36.590Z,29.37
2023-02-09T06:51:11.336Z,13.90
2023-02-09T06:53:39.853Z,18.43
2023-02-09T06:56:07.319Z,24.17
2023-02-09T06:58:35.033Z,24.33
2023-02-09T07:01:07.198Z,22.90
2023-02-09T07:03:34.463Z,18.63
2023-02-09T07:06:09.256Z,17.23
2023-02-09T07:08:36.996Z,20.60
2023-02-09T07:11:06.320Z,22.10
2023-02-09T07:13:33.587Z,18.60
2023-02-09T07:16:02.360Z,16.57
2023-02-09T07:18:29.673Z,18.88
2023-02-09T07:20:59.124Z,25.27
2023-02-09T07:23:26.272Z,20.63
2023-02-09T07:25:53.727Z,20.77
2023-02-09T07:28:21.138Z,19.30
2023-02-09T07:30:52.602Z,21.00
2023-02-09T07:33:21.013Z,18.07
2023-02-09T07:35:48.877Z,21.00
2023-02-09T07:38:16.410Z,25.90
2023-02-09T07:40:46.782Z,19.30
2023-02-09T07:43:14.532Z,19.57
2023-02-09T07:45:42.061Z,19.67
2023-02-09T07:48:13.510Z,25.27
2023-02-09T07:50:40.686Z,21.53
2023-02-09T07:53:07.626Z,20.27
2023-02-09T07:55:34.813Z,22.73
2023-02-09T07:58:01.852Z,20.93
2023-02-09T08:00:29.963Z,19.70
2023-02-09T08:02:57.196Z,16.03
2023-02-09T08:05:35.134Z,16.87
2023-02-09T08:08:02.444Z,14.70
2023-02-09T08:10:31.341Z,15.90
2023-02-09T08:13:00.682Z,17.65
2023-02-09T08:15:49.876Z,15.27
2023-02-09T08:18:24.312Z,16.57
2023-02-09T08:20:53.248Z,18.20
2023-02-09T08:23:32.899Z,18.42
2023-02-09T08:26:05.923Z,16.17
2023-02-09T08:28:43.653Z,15.63
2023-02-09T08:31:16.572Z,17.40
2023-02-09T08:33:44.955Z,16.70
2023-02-09T08:36:13.794Z,15.82
2023-02-09T08:38:40.858Z,13.95
2023-02-09T08:41:10.785Z,13.57
2023-02-09T08:43:38.067Z,13.53
2023-02-09T08:46:11.761Z,14.27
2023-02-09T08:48:45.461Z,13.77
2023-02-09T08:51:14.745Z,15.32
2023-02-09T08:56:10.592Z,17.10
2023-02-09T08:58:37.669Z,17.70
2023-02-09T09:01:05.629Z,14.33
2023-02-09T09:03:33.369Z,13.43
2023-02-09T09:06:02.784Z,16.63
2023-02-09T09:11:00.473Z,13.80
2023-02-09T09:13:28.127Z,16.83
2023-02-09T09:15:55.500Z,13.23
2023-02-09T09:18:24.414Z,11.50
2023-02-09T09:20:52.107Z,12.43
2023-02-09T09:23:21.180Z,11.50
2023-02-09T09:25:48.652Z,16.05
2023-02-09T09:28:26.667Z,15.10
2023-02-09T09:30:54.217Z,14.30
2023-02-09T09:33:21.880Z,13.93
2023-02-09T09:35:48.864Z,12.90
2023-02-09T09:38:16.380Z,13.98
2023-02-09T09:40:45.413Z,16.02
2023-02-09T09:43:22.762Z,14.30
2023-02-09T09:45:50.669Z,11.73
2023-02-09T09:48:32.289Z,14.13
2023-02-09T09:51:10.180Z,14.25
2023-02-09T09:53:38.803Z,12.68
2023-02-09T09:56:08.960Z,17.10
2023-02-09T09:58:41.377Z,11.80
2023-02-09T10:01:16.865Z,15.82
2023-02-09T10:03:44.683Z,12.35
2023-02-09T10:06:21.971Z,14.07
2023-02-09T10:08:52.064Z,12.53
2023-02-09T10:11:28.751Z,12.07
2023-02-09T10:13:59.491Z,12.57
2023-02-09T10:16:34.654Z,11.30
2023-02-09T10:19:04.483Z,11.43
2023-02-09T10:21:35.979Z,11.95
2023-02-09T10:24:11.779Z,13.15
2023-02-09T10:26:40.617Z,10.57
2023-02-09T10:29:10.924Z,12.07
2023-02-09T10:31:50.525Z,10.85
2023-02-09T10:34:21.423Z,11.60
2023-02-09T10:37:05.634Z,11.80
2023-02-09T10:39:35.606Z,15.88
2023-02-09T10:42:27.608Z,18.00
2023-02-09T10:44:59.876Z,9.75
2023-02-09T10:47:30.241Z,15.45
2023-02-09T10:50:04.752Z,14.35
2023-02-09T10:52:37.524Z,11.55
2023-02-09T10:55:16.023Z,14.35
2023-02-09T10:57:42.965Z,14.50
2023-02-09T11:00:27.847Z,16.48
2023-02-09T11:03:03.925Z,15.18
2023-02-09T11:05:34.021Z,17.42
2023-02-09T11:08:23.175Z,14.10
2023-02-09T11:13:33.331Z,13.07
2023-02-09T11:16:40.738Z,15.80
2023-02-09T11:19:27.885Z,11.13
2023-02-09T11:22:05.703Z,11.45
2023-02-09T11:25:14.400Z,13.70
2023-02-09T11:28:03.114Z,13.13
2023-02-09T11:30:50.739Z,12.07
2023-02-09T11:33:47.246Z,9.93
2023-02-09T11:36:33.331Z,11.18
2023-02-09T11:39:03.216Z,13.85
2023-02-09T11:41:58.937Z,10.18
2023-02-09T11:44:32.870Z,10.05
2023-02-09T11:47:05.234Z,9.23
2023-02-09T11:49:49.496Z,11.55
2023-02-09T11:52:35.760Z,10.38
2023-02-09T11:55:20.738Z,11.30
2023-02-09T11:58:06.706Z,9.07
2023-02-09T12:00:56.218Z,11.32
2023-02-09T12:03:24.905Z,12.13
2023-02-09T12:05:52.369Z,10.15
2023-02-09T12:08:38.505Z,11.30
2023-02-09T12:11:45.464Z,12.32
2023-02-09T12:15:00.348Z,11.77
2023-02-09T12:17:43.492Z,11.55
2023-02-09T12:20:40.467Z,9.88
2023-02-09T12:23:23.799Z,10.20
2023-02-09T12:26:12.978Z,10.52
2023-02-09T12:31:26.160Z,9.57
2023-02-09T12:33:59.393Z,12.38
2023-02-09T12:36:32.529Z,11.88
2023-02-09T12:39:05.074Z,10.85
2023-02-09T12:41:35.342Z,16.08
2023-02-09T12:44:25.222Z,8.35
2023-02-09T12:46:55.793Z,10.63
2023-02-09T12:49:29.118Z,11.23
2023-02-09T12:52:02.173Z,12.98
2023-02-09T12:54:38.075Z,10.98
2023-02-09T12:57:17.997Z,11.32
2023-02-09T12:59:51.160Z,11.35
2023-02-09T13:02:33.830Z,10.15
2023-02-09T13:05:08.045Z,10.18
2023-02-09T13:07:58.703Z,11.30
2023-02-09T13:10:41.267Z,9.98
2023-02-09T13:13:11.272Z,11.30
2023-02-09T13:15:50.953Z,12.57
2023-02-09T13:18:55.521Z,12.80
2023-02-09T13:21:31.601Z,13.38
2023-02-09T13:24:13.099Z,11.48
2023-02-09T13:26:53.630Z,10.52
2023-02-09T13:29:26.265Z,11.27
2023-02-09T13:32:10.541Z,11.25
2023-02-09T13:34:56.006Z,12.57
2023-02-09T13:37:45.040Z,14.30
2023-02-09T13:40:25.158Z,13.00
2023-02-09T13:42:57.254Z,13.65
2023-02-09T13:45:27.095Z,12.20
2023-02-09T13:47:56.195Z,14.50
2023-02-09T13:50:26.130Z,13.15
2023-02-09T13:52:53.256Z,11.77
2023-02-09T13:55:21.336Z,11.27
2023-02-09T13:58:18.040Z,9.70
2023-02-09T14:00:52.439Z,11.30
2023-02-09T14:03:58.935Z,12.95
2023-02-09T14:06:28.778Z,13.13
2023-02-09T14:09:00.043Z,10.88
2023-02-09T14:11:43.137Z,12.32
2023-02-09T14:14:18.037Z,12.10
2023-02-09T14:16:53.407Z,19.33
2023-02-09T14:19:33.431Z,15.50
2023-02-09T14:24:28.975Z,11.43
2023-02-09T14:27:16.722Z,13.07
2023-02-09T14:29:47.668Z,15.13
2023-02-09T14:32:32.991Z,13.60
2023-02-09T14:35:20.503Z,11.68
2023-02-09T14:37:50.127Z,11.25
2023-02-09T14:40:31.726Z,12.60
2023-02-09T14:43:10.778Z,12.57
2023-02-09T14:45:40.931Z,12.85
2023-02-09T14:48:17.939Z,12.15
2023-02-09T14:50:45.176Z,15.90
2023-02-09T14:53:14.462Z,13.60
2023-02-09T14:55:41.728Z,17.45
2023-02-09T14:58:12.761Z,15.98
2023-02-09T15:00:39.701Z,17.40
2023-02-09T15:03:06.800Z,20.15
2023-02-09T15:05:33.780Z,17.17
2023-02-09T15:08:05.795Z,18.10
2023-02-09T15:10:36.173Z,22.35
2023-02-09T15:13:04.266Z,15.75
2023-02-09T15:15:33.235Z,21.10
2023-02-09T15:18:00.650Z,16.17
2023-02-09T15:20:29.399Z,15.55
2023-02-09T15:22:56.357Z,23.13
2023-02-09T15:25:25.349Z,14.15
2023-02-09T15:27:56.767Z,17.52
2023-02-09T15:30:31.778Z,29.55
2023-02-09T15:32:59.440Z,31.63
2023-02-09T15:35:27.518Z,44.42
2023-02-09T15:37:59.714Z,32.22
2023-02-09T15:40:50.021Z,19.02
2023-02-09T15:43:39.283Z,24.67
2023-02-09T15:46:26.575Z,24.27
2023-02-09T15:48:53.543Z,17.52
2023-02-09T15:51:22.125Z,18.40
2023-02-09T15:53:49.335Z,17.95
2023-02-09T15:56:16.433Z,20.08
2023-02-09T15:58:45.372Z,20.52
2023-02-09T16:01:14.910Z,18.17
2023-02-09T16:03:42.664Z,18.00
2023-02-09T16:06:21.665Z,19.13
2023-02-09T16:08:49.857Z,16.27
2023-02-09T16:11:17.634Z,21.15
2023-02-09T16:13:44.560Z,19.95
2023-02-09T16:16:17.252Z,17.77
2023-02-09T16:18:45.966Z,18.88
2023-02-09T16:21:26.737Z,18.23
2023-02-09T16:23:58.149Z,18.48
2023-02-09T16:26:27.364Z,22.05
2023-02-09T16:28:55.120Z,17.92
2023-02-09T16:31:23.621Z,17.60
2023-02-09T16:33:51.457Z,20.90
2023-02-09T16:36:31.825Z,21.70
2023-02-09T16:39:01.226Z,17.17
2023-02-09T16:41:46.864Z,18.65
2023-02-09T16:44:26.373Z,21.23
2023-02-09T16:46:56.771Z,21.23
2023-02-09T16:49:43.928Z,21.05
2023-02-09T16:52:20.865Z,24.20
2023-02-09T16:54:51.782Z,22.02
2023-02-09T16:57:21.195Z,22.75
2023-02-09T16:59:48.077Z,20.15
2023-02-09T17:02:36.938Z,23.15
2023-02-09T17:05:25.730Z,19.45
2023-02-09T17:08:01.989Z,23.08
2023-02-09T17:10:32.406Z,28.40
2023-02-09T17:13:04.866Z,23.10
2023-02-09T17:15:39.325Z,22.85
2023-02-09T17:18:09.697Z,26.98
2023-02-09T17:20:42.067Z,60.85
2023-02-09T17:23:22.938Z,29.77
2023-02-09T17:26:01.005Z,26.95
2023-02-09T17:28:31.326Z,27.35
2023-02-09T17:31:04.678Z,31.10
2023-02-09T17:33:34.323Z,27.73
2023-02-09T17:38:49.739Z,30.52
2023-02-09T17:41:33.760Z,36.17
2023-02-09T17:44:24.309Z,32.17
2023-02-09T17:46:59.099Z,30.30
2023-02-09T17:49:26.187Z,26.83
2023-02-09T17:51:55.935Z,32.50
2023-02-09T17:54:23.670Z,39.83
2023-02-09T17:56:50.798Z,30.95
2023-02-09T17:59:20.356Z,39.28
2023-02-09T18:01:51.222Z,29.30
2023-02-09T18:04:22.726Z,26.52
2023-02-09T18:06:49.956Z,32.05
2023-02-09T18:09:17.036Z,28.48
2023-02-09T18:11:54.341Z,24.60
2023-02-09T18:14:23.109Z,23.88
2023-02-09T18:16:50.994Z,23.75
2023-02-09T18:19:18.353Z,24.50
2023-02-09T18:22:03.209Z,18.33
2023-02-09T18:24:35.236Z,22.15
2023-02-09T18:27:03.385Z,23.75
2023-02-09T18:29:30.767Z,24.95
2023-02-09T18:32:01.046Z,24.90
2023-02-09T18:34:30.996Z,26.55
2023-02-09T18:36:58.293Z,27.15
2023-02-09T18:39:25.457Z,22.75
2023-02-09T18:41:55.121Z,22.60
2023-02-09T18:44:29.004Z,23.65
2023-02-09T18:46:57.828Z,25.77
2023-02-09T18:49:26.056Z,23.40
2023-02-09T18:51:53.336Z,19.88
2023-02-09T18:54:20.330Z,27.23
2023-02-09T18:56:47.665Z,31.08
2023-02-09T18:59:14.707Z,28.42
2023-02-09T19:01:42.069Z,29.35
2023-02-09T19:04:11.156Z,27.27
2023-02-09T19:06:38.993Z,31.38
2023-02-09T19:09:05.926Z,28.17
2023-02-09T19:11:32.987Z,29.80
2023-02-09T19:14:18.875Z,26.05
2023-02-09T19:16:48.936Z,25.27
2023-02-09T19:19:16.448Z,24.73
2023-02-09T19:21:43.554Z,27.10
2023-02-09T19:24:10.508Z,27.33
2023-02-09T19:26:37.508Z,26.65
2023-02-09T19:29:05.004Z,23.73
2023-02-09T19:31:32.027Z,27.17
2023-02-09T19:33:59.128Z,25.15
2023-02-09T19:36:27.957Z,21.70
2023-02-09T19:38:56.234Z,23.80
2023-02-09T19:41:25.643Z,20.65
2023-02-09T19:43:57.438Z,25.73
2023-02-09T19:46:25.574Z,23.80
2023-02-09T19:48:53.915Z,25.35
2023-02-09T19:51:21.910Z,24.00
2023-02-09T19:53:49.679Z,21.63
2023-02-09T19:56:19.510Z,23.70
2023-02-09T19:58:47.004Z,19.73
2023-02-09T20:01:13.916Z,25.38
2023-02-09T20:03:41.474Z,23.15
2023-02-09T20:06:11.867Z,25.80
2023-02-09T20:08:39.850Z,53.42
2023-02-09T20:11:08.371Z,35.08
2023-02-09T20:13:35.970Z,138.73
2023-02-09T20:16:11.172Z,64.40
2023-02-09T20:18:38.148Z,44.40
2023-02-09T20:21:09.632Z,34.58
2023-02-09T20:23:37.730Z,31.00
2023-02-09T20:26:17.126Z,34.65
2023-02-09T20:28:44.622Z,36.97
2023-02-09T20:31:12.618Z,35.92
2023-02-09T20:33:40.262Z,29.90
2023-02-09T20:36:08.996Z,35.65
2023-02-09T20:38:37.478Z,32.08
2023-02-09T20:41:13.774Z,29.45
2023-02-09T20:43:59.841Z,26.50
2023-02-09T20:46:44.082Z,30.23
2023-02-09T20:49:14.547Z,28.50
2023-02-09T20:51:41.471Z,27.03
2023-02-09T20:54:08.742Z,23.63
2023-02-09T20:56:36.394Z,25.60
2023-02-09T20:59:08.442Z,27.33
2023-02-09T21:01:42.441Z,25.20
2023-02-09T21:04:09.714Z,29.67
2023-02-09T21:06:39.197Z,24.90
2023-02-09T21:09:08.217Z,34.72
2023-02-09T21:14:02.440Z,30.50
2023-02-09T21:16:30.951Z,33.23
2023-02-09T21:18:58.670Z,27.00
2023-02-09T21:21:27.120Z,24.77
2023-02-09T21:23:54.529Z,31.55
2023-02-09T21:26:24.901Z,42.73
2023-02-09T21:28:57.209Z,27.23
2023-02-09T21:31:27.141Z,49.47
2023-02-09T21:33:54.392Z,30.43
2023-02-09T21:36:21.410Z,42.73
2023-02-09T21:38:48.367Z,22.23
2023-02-09T21:41:40.500Z,26.53
2023-02-09T21:44:10.038Z,24.40
2023-02-09T21:46:37.195Z,22.17
2023-02-09T21:49:05.537Z,24.23
2023-02-09T21:51:32.456Z,25.03
2023-02-09T21:53:59.511Z,28.63
2023-02-09T21:56:26.498Z,30.17
2023-02-09T21:58:53.512Z,25.37
2023-02-09T22:01:22.888Z,28.17
2023-02-09T22:03:52.702Z,26.67
2023-02-09T22:06:38.180Z,26.88
2023-02-09T22:09:06.423Z,27.20
2023-02-09T22:11:33.754Z,28.93
2023-02-09T22:14:00.829Z,27.13
2023-02-09T22:16:29.570Z,23.90
2023-02-09T22:18:59.812Z,28.67
2023-02-09T22:21:31.320Z,25.67
2023-02-09T22:24:00.332Z,23.58
2023-02-09T22:26:27.252Z,26.15
2023-02-09T22:28:54.249Z,24.97
2023-02-09T22:31:21.868Z,44.00
2023-02-09T22:33:54.352Z,22.20
2023-02-09T22:36:23.456Z,23.43
2023-02-09T22:38:50.923Z,24.55
2023-02-09T22:41:23.963Z,22.43
2023-02-09T22:44:00.476Z,26.53
2023-02-09T22:46:31.181Z,25.63
2023-02-09T22:49:01.206Z,28.40
2023-02-09T22:51:30.191Z,33.50
2023-02-09T22:53:59.168Z,30.03
2023-02-09T22:56:29.023Z,31.77
2023-02-09T22:58:57.709Z,35.27
2023-02-09T23:01:24.761Z,52.30
2023-02-09T23:03:52.886Z,52.50
2023-02-09T23:06:23.507Z,50.07
2023-02-09T23:08:55.221Z,56.87
2023-02-09T23:11:22.609Z,56.90
2023-02-09T23:13:55.062Z,54.37
2023-02-09T23:16:34.516Z,60.83
2023-02-09T23:19:03.996Z,62.10
2023-02-09T23:21:35.256Z,62.03
2023-02-09T23:24:03.875Z,64.07
2023-02-09T23:26:31.138Z,58.15
2023-02-09T23:29:02.550Z,67.37
2023-02-09T23:31:30.141Z,63.20
2023-02-09T23:33:57.724Z,59.10
2023-02-09T23:36:27.971Z,59.80
2023-02-09T23:38:57.879Z,61.10
2023-02-09T23:41:25.800Z,58.57
2023-02-09T23:43:53.963Z,57.10
2023-02-09T23:46:24.188Z,50.67
2023-02-09T23:48:55.134Z,55.33
2023-02-09T23:51:28.677Z,50.43
2023-02-09T23:53:57.721Z,34.10
2023-02-09T23:56:25.011Z,35.47
2023-02-09T23:58:53.483Z,38.67
